N6306Q KPSP-KLAX
Flight info
| Callsign | N6306Q |
|---|---|
| Flight time | 0h 31m |
| Altitude | 6000 |
| Route | PSP V388 PDZ |
| Aircraft | TBM9/L-G/L |
Departure
| Time | 2026-04-26 06:40 |
|---|---|
| Airport | Palm Springs International Airport (KPSP) |
Arrival
| Time | 2026-04-26 07:11 |
|---|---|
| Airport | Los Angeles International Airport (KLAX) |
| Time | Latitude | Longitude | Altitude | Speed | Heading |
|---|---|---|---|---|---|
| 2026-04-26 06:16 | 33.82319 | -116.49738 | 404 ft | 0 kts | 53° |
| 2026-04-26 06:34 | 33.82331 | -116.49737 | 404 ft | 2 kts | 331° |
| 2026-04-26 06:35 | 33.82334 | -116.49739 | 404 ft | 5 kts | 331° |
| 2026-04-26 06:35 | 33.82334 | -116.49740 | 404 ft | 0 kts | 331° |
| 2026-04-26 06:35 | 33.82335 | -116.49740 | 404 ft | 3 kts | 332° |
| 2026-04-26 06:36 | 33.82420 | -116.49805 | 405 ft | 23 kts | 323° |
| 2026-04-26 06:36 | 33.82485 | -116.49906 | 408 ft | 14 kts | 258° |
| 2026-04-26 06:36 | 33.82464 | -116.49958 | 408 ft | 0 kts | 235° |
| 2026-04-26 06:39 | 33.82462 | -116.49961 | 408 ft | 6 kts | 236° |
| 2026-04-26 06:39 | 33.82515 | -116.50077 | 410 ft | 37 kts | 323° |
| 2026-04-26 06:39 | 33.82912 | -116.50422 | 435 ft | 101 kts | 324° |
| 2026-04-26 06:39 | 33.83576 | -116.51018 | 781 ft | 123 kts | 323° |
| 2026-04-26 06:40 | 33.84224 | -116.51653 | 1426 ft | 128 kts | 320° |
| 2026-04-26 06:40 | 33.85164 | -116.51883 | 1906 ft | 157 kts | 6° |
| 2026-04-26 06:40 | 33.86306 | -116.51523 | 2291 ft | 180 kts | 12° |
| 2026-04-26 06:40 | 33.87533 | -116.51129 | 2804 ft | 185 kts | 11° |
| 2026-04-26 06:41 | 33.88791 | -116.50711 | 3344 ft | 191 kts | 9° |
| 2026-04-26 06:41 | 33.90097 | -116.50268 | 3872 ft | 198 kts | 11° |
| 2026-04-26 06:41 | 33.91446 | -116.49803 | 4388 ft | 204 kts | 11° |
| 2026-04-26 06:41 | 33.92830 | -116.49332 | 4904 ft | 209 kts | 10° |
| 2026-04-26 06:42 | 33.94244 | -116.48840 | 5413 ft | 213 kts | 11° |
| 2026-04-26 06:42 | 33.95686 | -116.48457 | 5920 ft | 210 kts | 353° |
| 2026-04-26 06:42 | 33.96971 | -116.48992 | 6486 ft | 192 kts | 314° |
| 2026-04-26 06:42 | 33.97596 | -116.50296 | 7093 ft | 177 kts | 275° |
| 2026-04-26 06:43 | 33.97531 | -116.51745 | 7719 ft | 172 kts | 261° |
| 2026-04-26 06:43 | 33.97358 | -116.53159 | 8357 ft | 169 kts | 261° |
| 2026-04-26 06:43 | 33.97187 | -116.54551 | 8997 ft | 167 kts | 260° |
| 2026-04-26 06:43 | 33.97020 | -116.55929 | 9649 ft | 165 kts | 261° |
| 2026-04-26 06:44 | 33.96858 | -116.57289 | 10254 ft | 163 kts | 261° |
| 2026-04-26 06:44 | 33.96699 | -116.58635 | 10855 ft | 162 kts | 261° |
| 2026-04-26 06:44 | 33.96540 | -116.59976 | 11465 ft | 161 kts | 261° |
| 2026-04-26 06:44 | 33.96381 | -116.61318 | 11977 ft | 168 kts | 261° |
| 2026-04-26 06:45 | 33.96197 | -116.62828 | 12006 ft | 195 kts | 261° |
| 2026-04-26 06:45 | 33.95989 | -116.64539 | 12007 ft | 216 kts | 261° |
| 2026-04-26 06:45 | 33.95770 | -116.66370 | 12012 ft | 226 kts | 261° |
| 2026-04-26 06:45 | 33.95548 | -116.68248 | 12016 ft | 233 kts | 261° |
| 2026-04-26 06:46 | 33.95315 | -116.70202 | 12012 ft | 238 kts | 261° |
| 2026-04-26 06:46 | 33.95076 | -116.72185 | 12018 ft | 240 kts | 261° |
| 2026-04-26 06:46 | 33.94854 | -116.74180 | 12016 ft | 241 kts | 263° |
| 2026-04-26 06:46 | 33.94801 | -116.76198 | 12016 ft | 242 kts | 266° |
| 2026-04-26 06:47 | 33.94735 | -116.78220 | 12024 ft | 242 kts | 265° |
| 2026-04-26 06:47 | 33.94655 | -116.80258 | 12021 ft | 244 kts | 266° |
| 2026-04-26 06:47 | 33.94586 | -116.82308 | 12063 ft | 245 kts | 266° |
| 2026-04-26 06:47 | 33.94516 | -116.84361 | 12068 ft | 246 kts | 266° |
| 2026-04-26 06:48 | 33.94447 | -116.86416 | 12074 ft | 246 kts | 265° |
| 2026-04-26 06:48 | 33.94376 | -116.88476 | 12077 ft | 247 kts | 266° |
| 2026-04-26 06:48 | 33.94308 | -116.90542 | 12080 ft | 247 kts | 265° |
| 2026-04-26 06:48 | 33.94232 | -116.92610 | 12085 ft | 248 kts | 265° |
| 2026-04-26 06:49 | 33.94157 | -116.94681 | 12086 ft | 248 kts | 265° |
| 2026-04-26 06:49 | 33.94087 | -116.96757 | 12091 ft | 248 kts | 265° |
| 2026-04-26 06:49 | 33.94014 | -116.98838 | 12089 ft | 248 kts | 265° |
| 2026-04-26 06:49 | 33.93941 | -117.00911 | 12093 ft | 247 kts | 265° |
| 2026-04-26 06:50 | 33.93867 | -117.02980 | 12073 ft | 247 kts | 265° |
| 2026-04-26 06:50 | 33.93792 | -117.05059 | 11976 ft | 249 kts | 265° |
| 2026-04-26 06:50 | 33.93719 | -117.07142 | 11976 ft | 249 kts | 265° |
| 2026-04-26 06:50 | 33.93642 | -117.09228 | 11980 ft | 249 kts | 265° |
| 2026-04-26 06:51 | 33.93565 | -117.11315 | 11982 ft | 250 kts | 265° |
| 2026-04-26 06:51 | 33.93414 | -117.15507 | 11985 ft | 251 kts | 265° |
| 2026-04-26 06:51 | 33.93334 | -117.17608 | 11989 ft | 251 kts | 265° |
| 2026-04-26 06:52 | 33.93239 | -117.19705 | 11988 ft | 250 kts | 265° |
| 2026-04-26 06:52 | 33.93147 | -117.21760 | 11987 ft | 248 kts | 265° |
| 2026-04-26 06:52 | 33.93061 | -117.23832 | 11983 ft | 247 kts | 265° |
| 2026-04-26 06:52 | 33.92973 | -117.25896 | 11985 ft | 246 kts | 265° |
| 2026-04-26 06:53 | 33.92882 | -117.27954 | 11983 ft | 246 kts | 265° |
| 2026-04-26 06:53 | 33.92792 | -117.30001 | 11983 ft | 244 kts | 265° |
| 2026-04-26 06:53 | 33.92703 | -117.32040 | 11980 ft | 242 kts | 265° |
| 2026-04-26 06:53 | 33.92615 | -117.34066 | 11981 ft | 242 kts | 265° |
| 2026-04-26 06:54 | 33.92611 | -117.36096 | 11996 ft | 243 kts | 272° |
| 2026-04-26 06:54 | 33.92801 | -117.38119 | 11996 ft | 243 kts | 274° |
| 2026-04-26 06:54 | 33.92978 | -117.40143 | 11993 ft | 243 kts | 272° |
| 2026-04-26 06:54 | 33.93125 | -117.42174 | 11994 ft | 244 kts | 272° |
| 2026-04-26 06:55 | 33.93271 | -117.44212 | 11995 ft | 244 kts | 272° |
| 2026-04-26 06:55 | 33.93425 | -117.46242 | 11997 ft | 243 kts | 272° |
| 2026-04-26 06:55 | 33.93580 | -117.48266 | 11997 ft | 243 kts | 272° |
| 2026-04-26 06:55 | 33.93730 | -117.50292 | 11997 ft | 243 kts | 272° |
| 2026-04-26 06:56 | 33.93882 | -117.52308 | 11993 ft | 241 kts | 272° |
| 2026-04-26 06:56 | 33.94031 | -117.54295 | 12012 ft | 241 kts | 272° |
| 2026-04-26 06:56 | 33.94179 | -117.56273 | 12006 ft | 229 kts | 272° |
| 2026-04-26 06:56 | 33.94323 | -117.58137 | 11995 ft | 218 kts | 272° |
| 2026-04-26 06:57 | 33.94455 | -117.59928 | 11987 ft | 211 kts | 272° |
| 2026-04-26 06:57 | 33.94582 | -117.61697 | 11639 ft | 211 kts | 271° |
| 2026-04-26 06:57 | 33.94710 | -117.63445 | 11205 ft | 208 kts | 272° |
| 2026-04-26 06:57 | 33.94837 | -117.65170 | 10779 ft | 206 kts | 271° |
| 2026-04-26 06:58 | 33.94964 | -117.66887 | 10358 ft | 205 kts | 271° |
| 2026-04-26 06:58 | 33.94941 | -117.68580 | 10010 ft | 198 kts | 259° |
| 2026-04-26 06:58 | 33.94768 | -117.70178 | 10002 ft | 192 kts | 261° |
| 2026-04-26 06:58 | 33.94623 | -117.71794 | 10001 ft | 195 kts | 261° |
| 2026-04-26 06:59 | 33.94465 | -117.73438 | 9870 ft | 202 kts | 261° |
| 2026-04-26 06:59 | 33.94288 | -117.75208 | 9426 ft | 225 kts | 261° |
| 2026-04-26 06:59 | 33.94097 | -117.77138 | 9082 ft | 236 kts | 261° |
| 2026-04-26 06:59 | 33.93905 | -117.79146 | 8574 ft | 246 kts | 261° |
| 2026-04-26 07:00 | 33.93708 | -117.81193 | 8090 ft | 253 kts | 262° |
| 2026-04-26 07:00 | 33.93513 | -117.83302 | 7994 ft | 251 kts | 262° |
| 2026-04-26 07:00 | 33.93316 | -117.85354 | 7995 ft | 241 kts | 262° |
| 2026-04-26 07:00 | 33.93125 | -117.87334 | 7988 ft | 236 kts | 262° |
| 2026-04-26 07:01 | 33.92928 | -117.89346 | 7508 ft | 247 kts | 262° |
| 2026-04-26 07:01 | 33.92722 | -117.91424 | 7035 ft | 252 kts | 262° |
| 2026-04-26 07:01 | 33.92533 | -117.93493 | 6643 ft | 244 kts | 263° |
| 2026-04-26 07:01 | 33.92566 | -117.95492 | 6361 ft | 235 kts | 276° |
| 2026-04-26 07:02 | 33.92955 | -117.97359 | 6293 ft | 225 kts | 287° |
| 2026-04-26 07:02 | 33.93629 | -117.99039 | 6121 ft | 226 kts | 298° |
| 2026-04-26 07:02 | 33.94491 | -118.00664 | 5656 ft | 233 kts | 299° |
| 2026-04-26 07:02 | 33.95345 | -118.02314 | 5358 ft | 230 kts | 299° |
| 2026-04-26 07:03 | 33.96182 | -118.03951 | 5111 ft | 227 kts | 296° |
| 2026-04-26 07:03 | 33.96695 | -118.05711 | 4993 ft | 219 kts | 281° |
| 2026-04-26 07:03 | 33.96835 | -118.07505 | 4987 ft | 212 kts | 269° |
| 2026-04-26 07:03 | 33.96699 | -118.09266 | 4886 ft | 212 kts | 263° |
| 2026-04-26 07:04 | 33.96574 | -118.10433 | 4706 ft | 213 kts | 263° |
| 2026-04-26 07:04 | 33.96390 | -118.12214 | 4414 ft | 211 kts | 263° |
| 2026-04-26 07:04 | 33.96168 | -118.14444 | 4046 ft | 196 kts | 263° |
| 2026-04-26 07:04 | 33.96001 | -118.16060 | 3782 ft | 191 kts | 263° |
| 2026-04-26 07:05 | 33.95894 | -118.17084 | 3616 ft | 183 kts | 263° |
| 2026-04-26 07:05 | 33.95745 | -118.18581 | 3395 ft | 178 kts | 264° |
| 2026-04-26 07:05 | 33.95599 | -118.20040 | 3161 ft | 168 kts | 263° |
| 2026-04-26 07:05 | 33.95461 | -118.21340 | 2944 ft | 144 kts | 264° |
| 2026-04-26 07:06 | 33.95351 | -118.22447 | 2766 ft | 124 kts | 263° |
| 2026-04-26 07:06 | 33.95242 | -118.23523 | 2597 ft | 134 kts | 263° |
| 2026-04-26 07:06 | 33.95123 | -118.24671 | 2413 ft | 145 kts | 263° |
| 2026-04-26 07:06 | 33.95004 | -118.25828 | 2220 ft | 131 kts | 264° |
| 2026-04-26 07:07 | 33.94897 | -118.26884 | 2046 ft | 124 kts | 263° |
| 2026-04-26 07:07 | 33.94795 | -118.27886 | 1877 ft | 120 kts | 263° |
| 2026-04-26 07:07 | 33.94702 | -118.28801 | 1750 ft | 105 kts | 263° |
| 2026-04-26 07:07 | 33.94615 | -118.29655 | 1594 ft | 101 kts | 263° |
| 2026-04-26 07:08 | 33.94529 | -118.30497 | 1456 ft | 101 kts | 263° |
| 2026-04-26 07:08 | 33.94444 | -118.31343 | 1313 ft | 102 kts | 263° |
| 2026-04-26 07:08 | 33.94357 | -118.32196 | 1163 ft | 104 kts | 265° |
| 2026-04-26 07:08 | 33.94268 | -118.33057 | 1016 ft | 103 kts | 262° |
| 2026-04-26 07:09 | 33.94178 | -118.33911 | 870 ft | 104 kts | 263° |
| 2026-04-26 07:09 | 33.94091 | -118.34775 | 722 ft | 104 kts | 262° |
| 2026-04-26 07:09 | 33.94005 | -118.35608 | 579 ft | 99 kts | 263° |
| 2026-04-26 07:09 | 33.93924 | -118.36418 | 442 ft | 101 kts | 263° |
| 2026-04-26 07:10 | 33.93679 | -118.38827 | 119 ft | 70 kts | 263° |
| 2026-04-26 07:11 | 33.93693 | -118.39370 | 121 ft | 15 kts | 358° |
| 2026-04-26 07:11 | 33.93709 | -118.39371 | 120 ft | 0 kts | 358° |
| 2026-04-26 07:12 | 33.93713 | -118.39369 | 121 ft | 7 kts | 32° |
| 2026-04-26 07:13 | 33.93750 | -118.39235 | 121 ft | 22 kts | 85° |
| 2026-04-26 07:13 | 33.93694 | -118.39161 | 118 ft | 18 kts | 182° |
| 2026-04-26 07:13 | 33.93555 | -118.39103 | 121 ft | 21 kts | 205° |
| 2026-04-26 07:13 | 33.93458 | -118.39205 | 121 ft | 16 kts | 246° |
| 2026-04-26 07:14 | 33.93391 | -118.39313 | 118 ft | 17 kts | 212° |
| 2026-04-26 07:14 | 33.93384 | -118.39442 | 121 ft | 13 kts | 270° |
| 2026-04-26 07:14 | 33.93384 | -118.39449 | 121 ft | 0 kts | 270° |